sensor_id;sensor_type;location;lat;lon;timestamp;P1;durP1;ratioP1;P2;durP2;ratioP2
6898;SDS011;3488;42.616;23.350;2022-12-20T00:00:27;11.35;;;7.63;;
6898;SDS011;3488;42.616;23.350;2022-12-20T00:02:56;12.43;;;8.32;;
6898;SDS011;3488;42.616;23.350;2022-12-20T00:05:23;11.45;;;7.13;;
6898;SDS011;3488;42.616;23.350;2022-12-20T00:07:50;16.35;;;8.32;;
6898;SDS011;3488;42.616;23.350;2022-12-20T00:10:18;13.15;;;7.90;;
6898;SDS011;3488;42.616;23.350;2022-12-20T00:12:44;13.48;;;7.50;;
6898;SDS011;3488;42.616;23.350;2022-12-20T00:15:11;10.15;;;7.60;;
6898;SDS011;3488;42.616;23.350;2022-12-20T00:17:38;11.77;;;6.57;;
6898;SDS011;3488;42.616;23.350;2022-12-20T00:20:07;12.80;;;7.38;;
6898;SDS011;3488;42.616;23.350;2022-12-20T00:22:36;13.75;;;6.65;;
6898;SDS011;3488;42.616;23.350;2022-12-20T00:25:03;9.88;;;7.13;;
6898;SDS011;3488;42.616;23.350;2022-12-20T00:27:32;12.07;;;7.90;;
6898;SDS011;3488;42.616;23.350;2022-12-20T00:29:58;10.75;;;6.90;;
6898;SDS011;3488;42.616;23.350;2022-12-20T00:32:25;11.32;;;7.88;;
6898;SDS011;3488;42.616;23.350;2022-12-20T00:34:52;11.38;;;7.35;;
6898;SDS011;3488;42.616;23.350;2022-12-20T00:37:21;8.68;;;6.95;;
6898;SDS011;3488;42.616;23.350;2022-12-20T00:39:48;11.07;;;7.53;;
6898;SDS011;3488;42.616;23.350;2022-12-20T00:42:15;10.73;;;6.97;;
6898;SDS011;3488;42.616;23.350;2022-12-20T00:44:42;12.38;;;7.60;;
6898;SDS011;3488;42.616;23.350;2022-12-20T00:47:09;13.23;;;8.18;;
6898;SDS011;3488;42.616;23.350;2022-12-20T00:49:36;12.52;;;6.55;;
6898;SDS011;3488;42.616;23.350;2022-12-20T00:52:03;9.27;;;6.88;;
6898;SDS011;3488;42.616;23.350;2022-12-20T00:54:32;11.18;;;7.35;;
6898;SDS011;3488;42.616;23.350;2022-12-20T00:56:59;15.95;;;7.53;;
6898;SDS011;3488;42.616;23.350;2022-12-20T00:59:26;11.55;;;6.82;;
6898;SDS011;3488;42.616;23.350;2022-12-20T01:01:53;12.75;;;7.50;;
6898;SDS011;3488;42.616;23.350;2022-12-20T01:04:20;13.70;;;6.53;;
6898;SDS011;3488;42.616;23.350;2022-12-20T01:06:49;14.82;;;7.35;;
6898;SDS011;3488;42.616;23.350;2022-12-20T01:09:17;8.55;;;5.55;;
6898;SDS011;3488;42.616;23.350;2022-12-20T01:11:45;8.85;;;6.00;;
6898;SDS011;3488;42.616;23.350;2022-12-20T01:14:13;11.48;;;6.93;;
6898;SDS011;3488;42.616;23.350;2022-12-20T01:16:41;11.57;;;7.03;;
6898;SDS011;3488;42.616;23.350;2022-12-20T01:19:10;10.20;;;6.72;;
6898;SDS011;3488;42.616;23.350;2022-12-20T01:21:37;9.20;;;6.95;;
6898;SDS011;3488;42.616;23.350;2022-12-20T01:24:08;11.50;;;7.13;;
6898;SDS011;3488;42.616;23.350;2022-12-20T01:26:35;12.68;;;7.30;;
6898;SDS011;3488;42.616;23.350;2022-12-20T01:29:04;12.43;;;6.78;;
6898;SDS011;3488;42.616;23.350;2022-12-20T01:31:31;11.40;;;6.40;;
6898;SDS011;3488;42.616;23.350;2022-12-20T01:33:58;9.68;;;6.57;;
6898;SDS011;3488;42.616;23.350;2022-12-20T01:36:27;10.38;;;6.15;;
6898;SDS011;3488;42.616;23.350;2022-12-20T01:38:55;11.10;;;6.18;;
6898;SDS011;3488;42.616;23.350;2022-12-20T01:41:23;8.13;;;6.03;;
6898;SDS011;3488;42.616;23.350;2022-12-20T01:43:50;8.45;;;6.07;;
6898;SDS011;3488;42.616;23.350;2022-12-20T01:46:21;13.95;;;7.45;;
6898;SDS011;3488;42.616;23.350;2022-12-20T01:48:50;10.05;;;6.30;;
6898;SDS011;3488;42.616;23.350;2022-12-20T01:51:21;10.38;;;6.50;;
6898;SDS011;3488;42.616;23.350;2022-12-20T01:53:51;9.00;;;6.20;;
6898;SDS011;3488;42.616;23.350;2022-12-20T01:56:22;10.23;;;6.30;;
6898;SDS011;3488;42.616;23.350;2022-12-20T01:58:49;11.20;;;6.18;;
6898;SDS011;3488;42.616;23.350;2022-12-20T02:01:20;9.45;;;6.72;;
6898;SDS011;3488;42.616;23.350;2022-12-20T02:03:49;9.00;;;6.50;;
6898;SDS011;3488;42.616;23.350;2022-12-20T02:06:18;10.18;;;7.00;;
6898;SDS011;3488;42.616;23.350;2022-12-20T02:08:47;10.77;;;6.15;;
6898;SDS011;3488;42.616;23.350;2022-12-20T02:11:23;11.43;;;6.30;;
6898;SDS011;3488;42.616;23.350;2022-12-20T02:14:03;7.38;;;5.65;;
6898;SDS011;3488;42.616;23.350;2022-12-20T02:16:43;9.70;;;5.60;;
6898;SDS011;3488;42.616;23.350;2022-12-20T02:19:20;8.00;;;5.85;;
6898;SDS011;3488;42.616;23.350;2022-12-20T02:22:12;12.07;;;6.32;;
6898;SDS011;3488;42.616;23.350;2022-12-20T02:25:05;10.77;;;6.10;;
6898;SDS011;3488;42.616;23.350;2022-12-20T02:27:52;8.35;;;5.32;;
6898;SDS011;3488;42.616;23.350;2022-12-20T02:30:27;8.10;;;5.30;;
6898;SDS011;3488;42.616;23.350;2022-12-20T02:32:59;10.15;;;5.68;;
6898;SDS011;3488;42.616;23.350;2022-12-20T02:35:30;7.80;;;5.65;;
6898;SDS011;3488;42.616;23.350;2022-12-20T02:37:59;10.07;;;6.20;;
6898;SDS011;3488;42.616;23.350;2022-12-20T02:40:29;7.30;;;5.50;;
6898;SDS011;3488;42.616;23.350;2022-12-20T02:43:00;8.80;;;6.00;;
6898;SDS011;3488;42.616;23.350;2022-12-20T02:45:52;7.03;;;5.25;;
6898;SDS011;3488;42.616;23.350;2022-12-20T02:48:21;10.50;;;5.70;;
6898;SDS011;3488;42.616;23.350;2022-12-20T02:50:51;10.27;;;6.43;;
6898;SDS011;3488;42.616;23.350;2022-12-20T02:53:21;7.93;;;6.43;;
6898;SDS011;3488;42.616;23.350;2022-12-20T02:55:49;9.45;;;5.90;;
6898;SDS011;3488;42.616;23.350;2022-12-20T02:58:25;10.98;;;6.35;;
6898;SDS011;3488;42.616;23.350;2022-12-20T03:00:59;11.52;;;6.05;;
6898;SDS011;3488;42.616;23.350;2022-12-20T03:03:34;10.40;;;6.22;;
6898;SDS011;3488;42.616;23.350;2022-12-20T03:06:02;10.95;;;7.50;;
6898;SDS011;3488;42.616;23.350;2022-12-20T03:08:29;14.88;;;6.88;;
6898;SDS011;3488;42.616;23.350;2022-12-20T03:10:56;13.15;;;6.85;;
6898;SDS011;3488;42.616;23.350;2022-12-20T03:13:23;12.15;;;6.55;;
6898;SDS011;3488;42.616;23.350;2022-12-20T03:15:51;9.75;;;6.20;;
6898;SDS011;3488;42.616;23.350;2022-12-20T03:18:19;13.95;;;7.22;;
6898;SDS011;3488;42.616;23.350;2022-12-20T03:20:46;9.90;;;6.03;;
6898;SDS011;3488;42.616;23.350;2022-12-20T03:23:13;8.52;;;6.38;;
6898;SDS011;3488;42.616;23.350;2022-12-20T03:25:40;12.70;;;6.90;;
6898;SDS011;3488;42.616;23.350;2022-12-20T03:28:08;9.20;;;6.72;;
6898;SDS011;3488;42.616;23.350;2022-12-20T03:30:35;8.98;;;6.78;;
6898;SDS011;3488;42.616;23.350;2022-12-20T03:33:02;10.40;;;6.95;;
6898;SDS011;3488;42.616;23.350;2022-12-20T03:35:30;13.23;;;7.82;;
6898;SDS011;3488;42.616;23.350;2022-12-20T03:37:58;12.00;;;7.07;;
6898;SDS011;3488;42.616;23.350;2022-12-20T03:40:24;12.85;;;6.63;;
6898;SDS011;3488;42.616;23.350;2022-12-20T03:42:52;10.30;;;7.10;;
6898;SDS011;3488;42.616;23.350;2022-12-20T03:45:19;13.85;;;7.38;;
6898;SDS011;3488;42.616;23.350;2022-12-20T03:47:46;9.63;;;6.93;;
6898;SDS011;3488;42.616;23.350;2022-12-20T03:50:13;14.65;;;7.03;;
6898;SDS011;3488;42.616;23.350;2022-12-20T03:52:41;8.10;;;6.10;;
6898;SDS011;3488;42.616;23.350;2022-12-20T03:55:08;9.88;;;7.00;;
6898;SDS011;3488;42.616;23.350;2022-12-20T03:57:36;13.05;;;6.82;;
6898;SDS011;3488;42.616;23.350;2022-12-20T04:00:04;14.55;;;7.53;;
6898;SDS011;3488;42.616;23.350;2022-12-20T04:02:31;10.02;;;6.93;;
6898;SDS011;3488;42.616;23.350;2022-12-20T04:04:59;14.07;;;7.68;;
6898;SDS011;3488;42.616;23.350;2022-12-20T04:07:26;11.10;;;7.50;;
6898;SDS011;3488;42.616;23.350;2022-12-20T04:09:54;10.35;;;6.65;;
6898;SDS011;3488;42.616;23.350;2022-12-20T04:12:21;14.80;;;7.25;;
6898;SDS011;3488;42.616;23.350;2022-12-20T04:14:48;11.52;;;7.45;;
6898;SDS011;3488;42.616;23.350;2022-12-20T04:17:15;13.20;;;7.30;;
6898;SDS011;3488;42.616;23.350;2022-12-20T04:19:42;8.70;;;6.35;;
6898;SDS011;3488;42.616;23.350;2022-12-20T04:22:09;12.82;;;7.13;;
6898;SDS011;3488;42.616;23.350;2022-12-20T04:24:36;10.88;;;6.50;;
6898;SDS011;3488;42.616;23.350;2022-12-20T04:27:05;10.75;;;6.40;;
6898;SDS011;3488;42.616;23.350;2022-12-20T04:29:32;13.77;;;6.53;;
6898;SDS011;3488;42.616;23.350;2022-12-20T04:31:59;9.60;;;7.03;;
6898;SDS011;3488;42.616;23.350;2022-12-20T04:34:26;16.77;;;7.53;;
6898;SDS011;3488;42.616;23.350;2022-12-20T04:36:53;11.52;;;6.30;;
6898;SDS011;3488;42.616;23.350;2022-12-20T04:39:20;9.07;;;6.22;;
6898;SDS011;3488;42.616;23.350;2022-12-20T04:41:47;10.48;;;6.13;;
6898;SDS011;3488;42.616;23.350;2022-12-20T04:44:16;11.88;;;7.15;;
6898;SDS011;3488;42.616;23.350;2022-12-20T04:46:42;11.13;;;6.65;;
6898;SDS011;3488;42.616;23.350;2022-12-20T04:49:10;13.32;;;6.13;;
6898;SDS011;3488;42.616;23.350;2022-12-20T04:51:37;11.52;;;6.70;;
6898;SDS011;3488;42.616;23.350;2022-12-20T04:54:04;14.07;;;7.10;;
6898;SDS011;3488;42.616;23.350;2022-12-20T04:56:30;13.63;;;7.93;;
6898;SDS011;3488;42.616;23.350;2022-12-20T04:58:57;16.77;;;7.47;;
6898;SDS011;3488;42.616;23.350;2022-12-20T05:01:28;13.23;;;7.03;;
6898;SDS011;3488;42.616;23.350;2022-12-20T05:03:55;12.18;;;7.28;;
6898;SDS011;3488;42.616;23.350;2022-12-20T05:06:21;11.80;;;7.80;;
6898;SDS011;3488;42.616;23.350;2022-12-20T05:08:48;14.00;;;7.70;;
6898;SDS011;3488;42.616;23.350;2022-12-20T05:11:15;13.55;;;7.38;;
6898;SDS011;3488;42.616;23.350;2022-12-20T05:13:42;12.10;;;7.03;;
6898;SDS011;3488;42.616;23.350;2022-12-20T05:16:09;14.77;;;7.78;;
6898;SDS011;3488;42.616;23.350;2022-12-20T05:18:38;14.30;;;8.35;;
6898;SDS011;3488;42.616;23.350;2022-12-20T05:21:05;12.23;;;7.07;;
6898;SDS011;3488;42.616;23.350;2022-12-20T05:23:49;16.10;;;7.20;;
6898;SDS011;3488;42.616;23.350;2022-12-20T05:26:34;9.05;;;6.30;;
6898;SDS011;3488;42.616;23.350;2022-12-20T05:29:03;11.15;;;6.20;;
6898;SDS011;3488;42.616;23.350;2022-12-20T05:31:30;14.10;;;6.43;;
6898;SDS011;3488;42.616;23.350;2022-12-20T05:33:59;14.27;;;7.07;;
6898;SDS011;3488;42.616;23.350;2022-12-20T05:36:26;12.05;;;6.43;;
6898;SDS011;3488;42.616;23.350;2022-12-20T05:38:53;10.95;;;5.75;;
6898;SDS011;3488;42.616;23.350;2022-12-20T05:41:21;12.63;;;6.55;;
6898;SDS011;3488;42.616;23.350;2022-12-20T05:43:48;10.20;;;5.85;;
6898;SDS011;3488;42.616;23.350;2022-12-20T05:46:15;12.45;;;5.70;;
6898;SDS011;3488;42.616;23.350;2022-12-20T05:48:42;10.25;;;5.75;;
6898;SDS011;3488;42.616;23.350;2022-12-20T05:51:11;7.25;;;4.75;;
6898;SDS011;3488;42.616;23.350;2022-12-20T05:53:38;13.43;;;6.03;;
6898;SDS011;3488;42.616;23.350;2022-12-20T05:56:05;8.50;;;5.10;;
6898;SDS011;3488;42.616;23.350;2022-12-20T05:58:32;10.68;;;6.03;;
6898;SDS011;3488;42.616;23.350;2022-12-20T06:00:59;6.60;;;5.00;;
6898;SDS011;3488;42.616;23.350;2022-12-20T06:03:27;7.35;;;4.38;;
6898;SDS011;3488;42.616;23.350;2022-12-20T06:05:55;8.35;;;6.22;;
6898;SDS011;3488;42.616;23.350;2022-12-20T06:08:23;9.73;;;6.13;;
6898;SDS011;3488;42.616;23.350;2022-12-20T06:10:51;11.30;;;6.55;;
6898;SDS011;3488;42.616;23.350;2022-12-20T06:13:19;14.57;;;7.55;;
6898;SDS011;3488;42.616;23.350;2022-12-20T06:15:46;13.38;;;7.68;;
6898;SDS011;3488;42.616;23.350;2022-12-20T06:18:13;14.80;;;7.82;;
6898;SDS011;3488;42.616;23.350;2022-12-20T06:20:40;13.32;;;7.68;;
6898;SDS011;3488;42.616;23.350;2022-12-20T06:23:07;16.65;;;9.27;;
6898;SDS011;3488;42.616;23.350;2022-12-20T06:25:36;13.48;;;8.88;;
6898;SDS011;3488;42.616;23.350;2022-12-20T06:28:04;17.15;;;9.75;;
6898;SDS011;3488;42.616;23.350;2022-12-20T06:30:32;19.80;;;9.43;;
6898;SDS011;3488;42.616;23.350;2022-12-20T06:32:59;14.23;;;9.55;;
6898;SDS011;3488;42.616;23.350;2022-12-20T06:35:26;20.02;;;10.65;;
6898;SDS011;3488;42.616;23.350;2022-12-20T06:37:53;18.20;;;10.02;;
6898;SDS011;3488;42.616;23.350;2022-12-20T06:40:20;23.27;;;12.60;;
6898;SDS011;3488;42.616;23.350;2022-12-20T06:42:49;22.95;;;10.77;;
6898;SDS011;3488;42.616;23.350;2022-12-20T06:45:16;24.17;;;13.20;;
6898;SDS011;3488;42.616;23.350;2022-12-20T06:47:43;25.88;;;12.82;;
6898;SDS011;3488;42.616;23.350;2022-12-20T06:50:10;25.77;;;11.65;;
6898;SDS011;3488;42.616;23.350;2022-12-20T06:52:38;23.63;;;12.00;;
6898;SDS011;3488;42.616;23.350;2022-12-20T06:55:05;16.02;;;9.60;;
6898;SDS011;3488;42.616;23.350;2022-12-20T06:57:32;20.55;;;9.75;;
6898;SDS011;3488;42.616;23.350;2022-12-20T07:00:02;13.48;;;8.90;;
6898;SDS011;3488;42.616;23.350;2022-12-20T07:02:29;17.65;;;8.63;;
6898;SDS011;3488;42.616;23.350;2022-12-20T07:04:56;16.20;;;9.27;;
6898;SDS011;3488;42.616;23.350;2022-12-20T07:07:24;14.68;;;7.88;;
6898;SDS011;3488;42.616;23.350;2022-12-20T07:09:51;13.45;;;7.80;;
6898;SDS011;3488;42.616;23.350;2022-12-20T07:12:18;17.33;;;7.88;;
6898;SDS011;3488;42.616;23.350;2022-12-20T07:14:45;13.43;;;7.22;;
6898;SDS011;3488;42.616;23.350;2022-12-20T07:17:13;13.52;;;8.30;;
6898;SDS011;3488;42.616;23.350;2022-12-20T07:19:40;11.57;;;7.85;;
6898;SDS011;3488;42.616;23.350;2022-12-20T07:22:07;12.43;;;6.80;;
6898;SDS011;3488;42.616;23.350;2022-12-20T07:24:34;10.63;;;6.05;;
6898;SDS011;3488;42.616;23.350;2022-12-20T07:27:02;9.85;;;6.60;;
6898;SDS011;3488;42.616;23.350;2022-12-20T07:29:29;8.82;;;6.90;;
6898;SDS011;3488;42.616;23.350;2022-12-20T07:31:56;13.10;;;5.55;;
6898;SDS011;3488;42.616;23.350;2022-12-20T07:34:24;9.02;;;5.78;;
6898;SDS011;3488;42.616;23.350;2022-12-20T07:36:51;10.57;;;6.38;;
6898;SDS011;3488;42.616;23.350;2022-12-20T07:39:18;10.55;;;6.82;;
6898;SDS011;3488;42.616;23.350;2022-12-20T07:41:46;8.77;;;6.03;;
6898;SDS011;3488;42.616;23.350;2022-12-20T07:44:13;11.38;;;6.75;;
6898;SDS011;3488;42.616;23.350;2022-12-20T07:46:40;9.27;;;5.55;;
6898;SDS011;3488;42.616;23.350;2022-12-20T07:49:08;7.35;;;5.82;;
6898;SDS011;3488;42.616;23.350;2022-12-20T07:51:38;7.03;;;5.25;;
6898;SDS011;3488;42.616;23.350;2022-12-20T07:54:08;9.55;;;6.20;;
6898;SDS011;3488;42.616;23.350;2022-12-20T07:56:40;8.75;;;5.85;;
6898;SDS011;3488;42.616;23.350;2022-12-20T07:59:11;9.20;;;5.85;;
6898;SDS011;3488;42.616;23.350;2022-12-20T08:01:41;10.48;;;6.30;;
6898;SDS011;3488;42.616;23.350;2022-12-20T08:04:12;10.27;;;6.43;;
6898;SDS011;3488;42.616;23.350;2022-12-20T08:06:45;7.70;;;5.35;;
6898;SDS011;3488;42.616;23.350;2022-12-20T08:09:13;11.48;;;6.25;;
6898;SDS011;3488;42.616;23.350;2022-12-20T08:11:42;13.43;;;6.72;;
6898;SDS011;3488;42.616;23.350;2022-12-20T08:14:13;8.75;;;6.65;;
6898;SDS011;3488;42.616;23.350;2022-12-20T08:16:41;10.20;;;6.32;;
6898;SDS011;3488;42.616;23.350;2022-12-20T08:19:08;10.00;;;6.45;;
6898;SDS011;3488;42.616;23.350;2022-12-20T08:21:36;9.23;;;6.10;;
6898;SDS011;3488;42.616;23.350;2022-12-20T08:24:04;8.35;;;5.53;;
6898;SDS011;3488;42.616;23.350;2022-12-20T08:26:35;10.65;;;6.88;;
6898;SDS011;3488;42.616;23.350;2022-12-20T08:29:03;10.38;;;6.00;;
6898;SDS011;3488;42.616;23.350;2022-12-20T08:31:30;9.73;;;6.65;;
6898;SDS011;3488;42.616;23.350;2022-12-20T08:33:57;8.18;;;6.05;;
6898;SDS011;3488;42.616;23.350;2022-12-20T08:36:23;8.32;;;5.68;;
6898;SDS011;3488;42.616;23.350;2022-12-20T08:38:50;10.98;;;6.05;;
6898;SDS011;3488;42.616;23.350;2022-12-20T08:41:19;10.10;;;6.93;;
6898;SDS011;3488;42.616;23.350;2022-12-20T08:43:46;9.52;;;6.20;;
6898;SDS011;3488;42.616;23.350;2022-12-20T08:46:13;7.53;;;6.13;;
6898;SDS011;3488;42.616;23.350;2022-12-20T08:48:40;11.13;;;6.03;;
6898;SDS011;3488;42.616;23.350;2022-12-20T08:51:08;8.77;;;5.57;;
6898;SDS011;3488;42.616;23.350;2022-12-20T08:53:37;9.75;;;6.38;;
6898;SDS011;3488;42.616;23.350;2022-12-20T08:56:05;9.98;;;6.97;;
6898;SDS011;3488;42.616;23.350;2022-12-20T08:58:35;8.68;;;6.43;;
6898;SDS011;3488;42.616;23.350;2022-12-20T09:01:04;7.28;;;5.90;;
6898;SDS011;3488;42.616;23.350;2022-12-20T09:03:34;8.32;;;5.70;;
6898;SDS011;3488;42.616;23.350;2022-12-20T09:06:03;9.27;;;6.10;;
6898;SDS011;3488;42.616;23.350;2022-12-20T09:08:32;9.68;;;6.05;;
6898;SDS011;3488;42.616;23.350;2022-12-20T09:11:02;9.00;;;6.20;;
6898;SDS011;3488;42.616;23.350;2022-12-20T09:13:29;11.38;;;7.13;;
6898;SDS011;3488;42.616;23.350;2022-12-20T09:16:00;17.25;;;7.95;;
6898;SDS011;3488;42.616;23.350;2022-12-20T09:18:29;13.05;;;7.43;;
6898;SDS011;3488;42.616;23.350;2022-12-20T09:20:58;15.05;;;7.20;;
6898;SDS011;3488;42.616;23.350;2022-12-20T09:23:26;11.48;;;7.45;;
6898;SDS011;3488;42.616;23.350;2022-12-20T09:25:53;12.30;;;6.72;;
6898;SDS011;3488;42.616;23.350;2022-12-20T09:28:21;9.95;;;6.68;;
6898;SDS011;3488;42.616;23.350;2022-12-20T09:30:48;14.77;;;8.07;;
6898;SDS011;3488;42.616;23.350;2022-12-20T09:33:17;12.25;;;7.38;;
6898;SDS011;3488;42.616;23.350;2022-12-20T09:35:44;10.20;;;7.53;;
6898;SDS011;3488;42.616;23.350;2022-12-20T09:38:12;15.50;;;7.45;;
6898;SDS011;3488;42.616;23.350;2022-12-20T09:40:43;14.68;;;7.45;;
6898;SDS011;3488;42.616;23.350;2022-12-20T09:43:11;12.50;;;8.00;;
6898;SDS011;3488;42.616;23.350;2022-12-20T09:45:39;10.82;;;6.88;;
6898;SDS011;3488;42.616;23.350;2022-12-20T09:48:07;9.27;;;6.70;;
6898;SDS011;3488;42.616;23.350;2022-12-20T09:50:45;11.38;;;7.20;;
6898;SDS011;3488;42.616;23.350;2022-12-20T09:53:24;11.30;;;7.32;;
6898;SDS011;3488;42.616;23.350;2022-12-20T09:55:59;12.32;;;7.40;;
6898;SDS011;3488;42.616;23.350;2022-12-20T09:58:35;12.93;;;7.18;;
6898;SDS011;3488;42.616;23.350;2022-12-20T10:01:14;9.30;;;6.43;;
6898;SDS011;3488;42.616;23.350;2022-12-20T10:03:43;12.50;;;6.82;;
6898;SDS011;3488;42.616;23.350;2022-12-20T10:06:15;12.13;;;7.13;;
6898;SDS011;3488;42.616;23.350;2022-12-20T10:08:52;12.40;;;6.72;;
6898;SDS011;3488;42.616;23.350;2022-12-20T10:11:33;11.70;;;7.05;;
6898;SDS011;3488;42.616;23.350;2022-12-20T10:14:17;13.10;;;7.55;;
6898;SDS011;3488;42.616;23.350;2022-12-20T10:17:00;9.43;;;6.40;;
6898;SDS011;3488;42.616;23.350;2022-12-20T10:19:37;15.23;;;7.05;;
6898;SDS011;3488;42.616;23.350;2022-12-20T10:22:19;11.68;;;6.57;;
6898;SDS011;3488;42.616;23.350;2022-12-20T10:24:52;10.85;;;6.80;;
6898;SDS011;3488;42.616;23.350;2022-12-20T10:27:24;10.40;;;6.40;;
6898;SDS011;3488;42.616;23.350;2022-12-20T10:29:51;12.02;;;7.28;;
6898;SDS011;3488;42.616;23.350;2022-12-20T10:32:19;8.45;;;5.90;;
6898;SDS011;3488;42.616;23.350;2022-12-20T10:34:49;10.50;;;6.65;;
6898;SDS011;3488;42.616;23.350;2022-12-20T10:37:22;11.65;;;6.80;;
6898;SDS011;3488;42.616;23.350;2022-12-20T10:39:50;10.30;;;6.80;;
6898;SDS011;3488;42.616;23.350;2022-12-20T10:42:23;10.70;;;6.85;;
6898;SDS011;3488;42.616;23.350;2022-12-20T10:44:54;10.52;;;7.05;;
6898;SDS011;3488;42.616;23.350;2022-12-20T10:47:24;10.68;;;6.65;;
6898;SDS011;3488;42.616;23.350;2022-12-20T10:50:08;7.85;;;6.63;;
6898;SDS011;3488;42.616;23.350;2022-12-20T10:52:42;9.27;;;7.03;;
6898;SDS011;3488;42.616;23.350;2022-12-20T10:58:02;13.48;;;6.38;;
6898;SDS011;3488;42.616;23.350;2022-12-20T11:00:31;8.43;;;6.35;;
6898;SDS011;3488;42.616;23.350;2022-12-20T11:03:04;10.05;;;6.68;;
6898;SDS011;3488;42.616;23.350;2022-12-20T11:05:37;8.48;;;5.82;;
6898;SDS011;3488;42.616;23.350;2022-12-20T11:08:11;6.82;;;5.72;;
6898;SDS011;3488;42.616;23.350;2022-12-20T11:10:41;8.52;;;6.13;;
6898;SDS011;3488;42.616;23.350;2022-12-20T11:13:18;11.52;;;6.32;;
6898;SDS011;3488;42.616;23.350;2022-12-20T11:15:48;7.63;;;6.20;;
6898;SDS011;3488;42.616;23.350;2022-12-20T11:18:18;8.48;;;5.68;;
6898;SDS011;3488;42.616;23.350;2022-12-20T11:20:51;7.40;;;5.53;;
6898;SDS011;3488;42.616;23.350;2022-12-20T11:23:31;10.63;;;6.28;;
6898;SDS011;3488;42.616;23.350;2022-12-20T11:26:11;7.03;;;5.57;;
6898;SDS011;3488;42.616;23.350;2022-12-20T11:28:55;8.13;;;6.10;;
6898;SDS011;3488;42.616;23.350;2022-12-20T11:31:36;9.30;;;6.30;;
6898;SDS011;3488;42.616;23.350;2022-12-20T11:34:23;6.80;;;5.18;;
6898;SDS011;3488;42.616;23.350;2022-12-20T11:37:08;9.10;;;5.75;;
6898;SDS011;3488;42.616;23.350;2022-12-20T11:39:55;7.75;;;5.47;;
6898;SDS011;3488;42.616;23.350;2022-12-20T11:42:31;12.60;;;5.45;;
6898;SDS011;3488;42.616;23.350;2022-12-20T11:45:11;7.10;;;5.32;;
6898;SDS011;3488;42.616;23.350;2022-12-20T11:47:53;7.25;;;5.15;;
6898;SDS011;3488;42.616;23.350;2022-12-20T11:50:40;6.78;;;4.63;;
6898;SDS011;3488;42.616;23.350;2022-12-20T11:53:16;5.90;;;5.10;;
6898;SDS011;3488;42.616;23.350;2022-12-20T11:55:48;9.25;;;5.82;;
6898;SDS011;3488;42.616;23.350;2022-12-20T11:58:20;8.35;;;5.60;;
6898;SDS011;3488;42.616;23.350;2022-12-20T12:00:53;6.00;;;5.38;;
6898;SDS011;3488;42.616;23.350;2022-12-20T12:03:26;8.48;;;5.68;;
6898;SDS011;3488;42.616;23.350;2022-12-20T12:05:57;9.43;;;6.25;;
6898;SDS011;3488;42.616;23.350;2022-12-20T12:08:30;9.65;;;5.75;;
6898;SDS011;3488;42.616;23.350;2022-12-20T12:11:07;7.38;;;5.60;;
6898;SDS011;3488;42.616;23.350;2022-12-20T12:13:42;7.22;;;5.35;;
6898;SDS011;3488;42.616;23.350;2022-12-20T12:16:11;8.10;;;5.65;;
6898;SDS011;3488;42.616;23.350;2022-12-20T12:18:43;8.43;;;5.53;;
6898;SDS011;3488;42.616;23.350;2022-12-20T12:21:12;9.07;;;5.60;;
6898;SDS011;3488;42.616;23.350;2022-12-20T12:23:48;6.72;;;4.80;;
6898;SDS011;3488;42.616;23.350;2022-12-20T12:26:28;7.55;;;5.47;;
6898;SDS011;3488;42.616;23.350;2022-12-20T12:28:57;10.68;;;5.90;;
6898;SDS011;3488;42.616;23.350;2022-12-20T12:31:27;10.20;;;5.07;;
6898;SDS011;3488;42.616;23.350;2022-12-20T12:34:03;11.80;;;5.53;;
6898;SDS011;3488;42.616;23.350;2022-12-20T12:39:57;11.57;;;6.22;;
6898;SDS011;3488;42.616;23.350;2022-12-20T12:42:57;7.68;;;5.72;;
6898;SDS011;3488;42.616;23.350;2022-12-20T12:45:40;10.20;;;6.55;;
6898;SDS011;3488;42.616;23.350;2022-12-20T12:48:12;12.23;;;5.97;;
6898;SDS011;3488;42.616;23.350;2022-12-20T12:50:43;6.55;;;5.93;;
6898;SDS011;3488;42.616;23.350;2022-12-20T12:53:13;7.63;;;5.95;;
6898;SDS011;3488;42.616;23.350;2022-12-20T12:55:43;13.50;;;6.72;;
6898;SDS011;3488;42.616;23.350;2022-12-20T13:01:08;8.95;;;6.28;;
6898;SDS011;3488;42.616;23.350;2022-12-20T13:03:38;9.90;;;6.10;;
6898;SDS011;3488;42.616;23.350;2022-12-20T13:09:34;9.75;;;6.30;;
6898;SDS011;3488;42.616;23.350;2022-12-20T13:18:24;22.67;;;7.18;;
6898;SDS011;3488;42.616;23.350;2022-12-20T13:29:57;21.77;;;7.13;;
6898;SDS011;3488;42.616;23.350;2022-12-20T13:35:57;10.38;;;6.88;;
6898;SDS011;3488;42.616;23.350;2022-12-20T13:38:54;8.95;;;4.97;;
6898;SDS011;3488;42.616;23.350;2022-12-20T13:41:29;6.22;;;4.07;;
6898;SDS011;3488;42.616;23.350;2022-12-20T13:44:00;5.25;;;4.35;;
6898;SDS011;3488;42.616;23.350;2022-12-20T13:46:39;6.13;;;3.80;;
6898;SDS011;3488;42.616;23.350;2022-12-20T13:49:14;11.38;;;6.53;;
6898;SDS011;3488;42.616;23.350;2022-12-20T13:51:48;13.15;;;7.07;;
6898;SDS011;3488;42.616;23.350;2022-12-20T13:54:33;11.77;;;7.07;;
6898;SDS011;3488;42.616;23.350;2022-12-20T13:57:05;8.88;;;6.43;;
6898;SDS011;3488;42.616;23.350;2022-12-20T13:59:33;9.05;;;6.13;;
6898;SDS011;3488;42.616;23.350;2022-12-20T14:02:02;10.98;;;5.95;;
6898;SDS011;3488;42.616;23.350;2022-12-20T14:04:39;10.27;;;7.38;;
6898;SDS011;3488;42.616;23.350;2022-12-20T14:07:08;11.98;;;7.88;;
6898;SDS011;3488;42.616;23.350;2022-12-20T14:09:42;12.68;;;7.18;;
6898;SDS011;3488;42.616;23.350;2022-12-20T14:12:10;8.70;;;7.32;;
6898;SDS011;3488;42.616;23.350;2022-12-20T14:14:41;10.60;;;6.93;;
6898;SDS011;3488;42.616;23.350;2022-12-20T14:17:16;10.13;;;6.90;;
6898;SDS011;3488;42.616;23.350;2022-12-20T14:20:02;11.50;;;6.82;;
6898;SDS011;3488;42.616;23.350;2022-12-20T14:22:33;9.50;;;6.68;;
6898;SDS011;3488;42.616;23.350;2022-12-20T14:25:03;10.73;;;6.22;;
6898;SDS011;3488;42.616;23.350;2022-12-20T14:27:32;10.50;;;6.80;;
6898;SDS011;3488;42.616;23.350;2022-12-20T14:30:03;11.98;;;6.50;;
6898;SDS011;3488;42.616;23.350;2022-12-20T14:32:31;12.05;;;6.85;;
6898;SDS011;3488;42.616;23.350;2022-12-20T14:34:58;12.10;;;7.35;;
6898;SDS011;3488;42.616;23.350;2022-12-20T14:37:28;9.20;;;6.28;;
6898;SDS011;3488;42.616;23.350;2022-12-20T14:39:59;11.57;;;6.15;;
6898;SDS011;3488;42.616;23.350;2022-12-20T14:42:31;8.77;;;5.88;;
6898;SDS011;3488;42.616;23.350;2022-12-20T14:45:14;7.43;;;5.35;;
6898;SDS011;3488;42.616;23.350;2022-12-20T14:47:53;8.50;;;4.97;;
6898;SDS011;3488;42.616;23.350;2022-12-20T14:50:24;8.50;;;5.57;;
6898;SDS011;3488;42.616;23.350;2022-12-20T14:52:55;8.80;;;5.25;;
6898;SDS011;3488;42.616;23.350;2022-12-20T14:55:24;12.25;;;5.75;;
6898;SDS011;3488;42.616;23.350;2022-12-20T14:57:56;9.50;;;5.60;;
6898;SDS011;3488;42.616;23.350;2022-12-20T15:00:24;9.63;;;6.20;;
6898;SDS011;3488;42.616;23.350;2022-12-20T15:03:00;13.32;;;7.03;;
6898;SDS011;3488;42.616;23.350;2022-12-20T15:05:46;19.67;;;9.63;;
6898;SDS011;3488;42.616;23.350;2022-12-20T15:08:17;16.65;;;9.68;;
6898;SDS011;3488;42.616;23.350;2022-12-20T15:10:47;20.30;;;9.52;;
6898;SDS011;3488;42.616;23.350;2022-12-20T15:13:18;14.13;;;8.43;;
6898;SDS011;3488;42.616;23.350;2022-12-20T15:15:47;35.95;;;14.85;;
6898;SDS011;3488;42.616;23.350;2022-12-20T15:18:15;20.35;;;10.52;;
6898;SDS011;3488;42.616;23.350;2022-12-20T15:20:46;12.55;;;6.72;;
6898;SDS011;3488;42.616;23.350;2022-12-20T15:23:20;13.00;;;6.97;;
6898;SDS011;3488;42.616;23.350;2022-12-20T15:25:48;7.80;;;5.25;;
6898;SDS011;3488;42.616;23.350;2022-12-20T15:28:16;11.73;;;7.32;;
6898;SDS011;3488;42.616;23.350;2022-12-20T15:30:44;10.27;;;6.38;;
6898;SDS011;3488;42.616;23.350;2022-12-20T15:33:15;12.82;;;6.75;;
6898;SDS011;3488;42.616;23.350;2022-12-20T15:35:44;18.15;;;8.55;;
6898;SDS011;3488;42.616;23.350;2022-12-20T15:38:13;28.42;;;11.27;;
6898;SDS011;3488;42.616;23.350;2022-12-20T15:40:44;15.80;;;8.25;;
6898;SDS011;3488;42.616;23.350;2022-12-20T15:43:13;15.98;;;8.10;;